Tiempo atmosférico en la estación meteorológica de Hierro Aeropuerto, Santa Cruz de Tenerife (32 m.)



Fecha
DESCASC
Temp. máxima en grados centígrados (hora)
DESCASC
Temp. mínima en grados centígrados (hora)
DESCASC
Temp. media en grados centígrados
DESCASC
Racha de viento máxima en m/sg (hora)
DESCASC
Velocidad máxima media en intervalos de 10 minutos(hora)
DESCASC
Precipitaciones diarias en mm
DESCASC
Precipitaciones de 00:00 a 06:00 en mm
DESCASC
Precipitaciones de 06:00 a 12:00 en mm
DESCASC
Precipitaciones de 12:00 a 18:00 en mm
DESCASC
Precipitaciones de 18:00 a 24:00 en mm
DESCASC
22-01-2020 19.1 (13:30) 16.4 (22:10) 17.8 8.33 (02:40) 6.39 (02:40) 0 0 0 0 0
21-01-2020 19.4 (12:50) 15.5 (15:10) 17.4 13.33 (14:30) 11.11 (19:10) 0.3 0 0 0.3 0
20-01-2020 19.6 (12:30) 18.1 (22:30) 18.9 13.89 (03:40) 11.39 (17:50) 0 0 0 0 0
19-01-2020 22.9 (12:40) 17.9 (00:00) 20.4 11.39 (23:50) 8.61 (19:00) 0 0 0 0 0
18-01-2020 21.4 (10:50) 16 (00:00) 18.7 10.83 (06:40) 7.78 (06:40) 0 0 0 0 0
17-01-2020 21.5 (13:20) 15.3 (00:00) 18.4 8.89 (12:00) 6.94 (13:30) 0 0 0 0 0
16-01-2020 21.3 (11:50) 15.4 (00:00) 18.3 6.67 (01:10) 5 (00:50) 0 0 0 0 0
15-01-2020 21.9 (13:20) 15.6 (00:00) 18.8 8.89 (10:50) 6.39 (12:10) 0 0 0 0 0
14-01-2020 22.8 (13:40) 17.3 (00:00) 20 12.5 (12:20) 8.61 (13:50) 0 0 0 0 0
13-01-2020 20.7 (13:40) 17.3 (00:00) 19 8.89 (09:20) 6.67 (04:10) 0 0 0 0 0
12-01-2020 21.3 (13:30) 16 (00:50) 18.6 13.33 (00:10) 10 (07:30) 0.3 0.3 0 0 0
11-01-2020 20.9 (12:10) 17.1 (00:00) 19 13.33 (03:50) 10.56 (23:50) 0 0 0 0 0
10-01-2020 20.5 (10:30) 18.6 (00:00) 19.6 13.33 (12:30) 10.28 (07:10) 0 0 0 0 0
09-01-2020 20.5 (12:50) 18.5 (00:00) 19.5 13.89 (19:10) 10.83 (21:10) 0 0 0 0 0
08-01-2020 20.5 (12:40) 18.5 (00:00) 19.5 13.89 (11:50) 10.56 (19:00) 0.1 0 0 0.1 0
07-01-2020 20.3 (10:00) 18.6 (00:00) 19.4 14.44 (01:00) 11.39 (01:10) 0 0 0 0 0
06-01-2020 20.3 (14:40) 18.5 (00:00) 19.4 14.44 (19:30) 10.83 (19:30) 0 0 0 0 0
05-01-2020 21.3 (12:40) 16.3 (00:00) 18.8 12.5 (08:10) 9.17 (08:20) 0 0 0 0 0
04-01-2020 21.2 (11:10) 16.6 (00:00) 18.9 10.83 (00:30) 8.33 (00:30) 0 0 0 0 0
03-01-2020 21.1 (13:40) 17 (00:00) 19.1 12.78 (06:30) 9.72 (06:40) 0 0 0 0 0
02-01-2020 21.1 (12:40) 17.6 (00:00) 19.4 13.33 (07:10) 10.28 (07:10) 0 0 0 0 0
01-01-2020 23 (12:50) 17.1 (00:00) 20.1 12.78 (10:10) 10.28 (10:10) 0 0 0 0 0
31-12-2019 21.4 (14:10) 17.3 (00:00) 19.3 8.89 (12:50) 6.67 (12:50) 0 0 0 0 0
30-12-2019 24.8 (13:10) 18.1 (00:00) 21.4 9.72 (03:30) 6.39 (12:30) 0 0 0 0 0
29-12-2019 24.2 (11:50) 18.3 (00:00) 21.3 12.78 (04:20) 8.06 (15:20) 0 0 0 0 0
28-12-2019 24.9 (11:40) 19.1 (00:00) 22 11.67 (02:50) 6.39 (21:40) 0 0 0 0 0
27-12-2019 24.8 (13:10) 17.3 (00:00) 21 12.78 (14:20) 6.94 (12:30) 0 0 0 0 0
26-12-2019 24.9 (15:00) 17.8 (00:00) 21.3 8.89 (17:50) 5 (23:59) -- 0 -- 0 0
25-12-2019 25.2 (10:00) 18 (00:00) 21.6 13.33 (11:00) 9.17 (11:10) 0 0 0 0 0

Gráficas

Temp. máximas Temp. mínimas Temp. medias Precipitaciones Rachas de viento máximas Velocidades máximas media en intervalos de 10 minutos

Datos horarios

Fecha y hora oficial Temperatura (ºC) Velocidad del viento (km/h) Dirección del viento Racha (km/h) Dirección de racha Precipitación (mm) Presión (hPa) Tendencia (hPa) Humedad (%)
2020-01-23 23:00:00 17.3 20 Oeste 26 Oeste 0 1017.5 0.7 61
2020-01-23 22:00:00 17.5 18 Oeste 26 Oeste 0 1017.6 1.8 60
2020-01-23 21:00:00 17.5 15 Oeste 26 Oeste 0 1017.3 1.7 60
2020-01-23 20:00:00 17 16 Oeste 22 Oeste 0 1016.8 1.3 63
2020-01-23 19:00:00 17.7 13 Noroeste 21 Noroeste 0 1015.8 0.5 61
2020-01-23 18:00:00 18.3 13 Noroeste 26 Noroeste 0 1015.6 0 58
2020-01-23 17:00:00 18.5 16 Noroeste 26 Noroeste 0 1015.5 -0.5 58
2020-01-23 16:00:00 18.5 18 Noroeste 32 Noroeste 0 1015.3 -1.3 61
2020-01-23 15:00:00 18.8 20 Norte 30 Norte 0 1015.6 -1.5 62
2020-01-23 14:00:00 18.5 18 Norte 30 Noroeste 0 1016 -1.4 61
2020-01-23 13:00:00 18.7 21 Norte 32 Noroeste 0 1016.6 -0.1 64
2020-01-23 12:00:00 18.9 19 Norte 30 Noroeste 0 1017.1 1.3 60
2020-01-23 11:00:00 19.2 19 Noroeste 32 Noroeste 0 1017.4 1.9 60
2020-01-23 10:00:00 18.6 15 Noroeste 28 Noroeste 0 1016.7 1.9 62
2020-01-23 09:00:00 17.4 17 Noroeste 26 Noroeste 0 1015.8 0.9 65
2020-01-23 08:00:00 17 15 Noroeste 35 Oeste 0 1015.5 0.7 67
2020-01-23 07:00:00 17 20 Oeste 28 Noroeste 0 1014.8 -0.1 64
2020-01-23 06:00:00 15.9 11 Sudoeste 21 Oeste 0 1014.9 -0.5 70
2020-01-23 05:00:00 17.1 12 Oeste 24 Oeste 0 1014.8 -0.9 63
2020-01-23 04:00:00 17.2 15 Oeste 26 Noroeste 0 1014.9 -1 62
2020-01-23 03:00:00 17 11 Oeste 24 Oeste 0 1015.4 -0.7 64
2020-01-23 02:00:00 16.5 13 Oeste 22 Oeste 0 1015.7 -0.3 67
2020-01-23 01:00:00 17 14 Oeste 21 Oeste 0 1015.9 -0.2 63
2020-01-23 00:00:00 17.3 13 Oeste 28 Oeste 0 1016.1 0.2 59
2020-01-22 23:00:00 17.1 13 Oeste 22 Oeste 0 1016 0.7 58
2020-01-22 22:00:00 17.4 12 Oeste 18 Noroeste 0 1016.1 1.4 59
2020-01-22 21:00:00 17.3 13 Oeste 24 Oeste 0 1015.9 1.8 57
2020-01-22 20:00:00 17.2 14 Oeste 22 Oeste 0 1015.3 1.2 60
2020-01-22 19:00:00 17.6 12 Oeste 22 Oeste 0 1014.7 0.7 56
2020-01-22 18:00:00 18 12 Noroeste 18 Noroeste 0 1014.1 -0.4 58
2020-01-22 17:00:00 18.5 2 Este 13 Este 0 1014.1 -1 61
2020-01-22 16:00:00 18.3 3 Este 15 Este 0 1014 -1.6 61
2020-01-22 15:00:00 18.1 7 Este 15 Este 0 1014.5 -1.5 65
2020-01-22 14:00:00 18.4 9 Este 18 Sur 0 1015.1 -1 64
2020-01-22 13:00:00 18.6 9 Sudeste 15 Este 0 1015.6 -0.2 63
2020-01-22 12:00:00 18.5 8 Este 13 Este 0 1016 0.6 62
2020-01-22 11:00:00 18.6 6 Norte 17 Nordeste 0 1016.1 1.1 61
2020-01-22 10:00:00 18.2 12 Norte 18 Norte 0 1015.8 1.3 61
2020-01-22 09:00:00 17.4 7 Noroeste 15 Norte 0 1015.4 1.2 61
2020-01-22 08:00:00 17.2 8 Norte 15 Norte 0 1015 0.9 65
2020-01-22 07:00:00 17.3 11 Nordeste 24 Nordeste 0 1014.5 0.5 65
2020-01-22 06:00:00 17.3 15 Nordeste 22 Nordeste 0 1014.2 0.1 65
2020-01-22 05:00:00 17.2 10 Nordeste 22 Nordeste 0 1014.1 -0.3 66
2020-01-22 04:00:00 17.3 15 Nordeste 26 Nordeste 0 1014 -0.5 67
2020-01-22 03:00:00 17.2 19 Nordeste 30 Nordeste 0 1014.1 -0.7 68
2020-01-22 02:00:00 17.2 17 Norte 28 Nordeste 0 1014.4 -0.1 70
2020-01-22 01:00:00 17 21 Norte 28 Norte 0 1014.5 0 71
2020-01-22 00:00:00 17 15 Norte 24 Norte 0 1014.8 0.5 71
2020-01-21 23:00:00 17 14 Norte 26 Norte 0 1014.5 0.8 68
2020-01-21 22:00:00 16.9 18 Norte 35 Nordeste 0 1014.5 1.7 72
2020-01-21 21:00:00 16.6 23 Norte 37 Norte 0 1014.3 1.7 72
2020-01-21 20:00:00 16.3 29 Norte 48 Norte 0 1013.7 1 81
2020-01-21 19:00:00 16.9 33 Norte 46 Norte 0 1012.8 0.2 81
2020-01-21 18:00:00 17.3 23 Norte 35 Norte 0 1012.6 -0.3 77
2020-01-21 17:00:00 17.2 14 Norte 18 Norte 0 1012.7 -0.2 78
2020-01-21 16:00:00 16.9 11 Norte 35 Norte 0 1012.6 -0.9 75
2020-01-21 15:00:00 16.2 32 Norte 48 Norte 0.3 1012.9 -1.2 88
2020-01-21 14:00:00 18.5 18 Noroeste 28 Noroeste 0 1012.9 -1.5 62
2020-01-21 13:00:00 18.9 11 Norte 18 Norte 0 1013.5 -0.1 62
2020-01-21 12:00:00 18.7 13 Norte 21 Norte 0 1014.1 1.3 62
2020-01-21 11:00:00 18.4 12 Norte 18 Norte 0 1014.4 2.1 63
2020-01-21 10:00:00 18.2 14 Nordeste 26 Nordeste 0 1013.6 1.5 61
2020-01-21 09:00:00 18 22 Nordeste 32 Nordeste 0 1012.8 0.6 61
2020-01-21 08:00:00 17.9 19 Nordeste 28 Nordeste 0 1012.3 0 65
2020-01-21 07:00:00 17.8 18 Norte 35 Norte 0 1012.1 0 68
2020-01-21 06:00:00 17.9 23 Norte 37 Nordeste 0 1012.2 -0.2 66
2020-01-21 05:00:00 17.9 28 Nordeste 42 Nordeste 0 1012.3 -1 73
2020-01-21 04:00:00 18 31 Norte 39 Nordeste 0 1012.1 -1.8 72
2020-01-21 03:00:00 18.4 29 Norte 37 Norte 0 1012.4 -2 67
2020-01-21 02:00:00 18.2 25 Norte 35 Norte 0 1013.3 -1.1 64
2020-01-21 01:00:00 18.4 28 Norte 37 Nordeste 0 1013.9 -0.4 65
2020-01-21 00:00:00 18.3 24 Norte 45 Nordeste 0 1014.4 0.3 62
2020-01-20 23:00:00 18.2 31 Norte 42 Norte 0 1014.4 0.9 61
2020-01-20 22:00:00 18.4 32 Norte 42 Norte 0 1014.3 1.2 66
2020-01-20 21:00:00 18.4 32 Norte 45 Nordeste 0 1014.1 1.2 67
2020-01-20 20:00:00 18.5 33 Norte 46 Norte 0 1013.5 0.3 72
2020-01-20 19:00:00 18.6 33 Norte 46 Norte 0 1013.1 -0.5 64
2020-01-20 18:00:00 18.7 40 Norte 48 Norte 0 1012.9 -0.4 67
2020-01-20 17:00:00 18.9 36 Norte 45 Norte 0 1013.2 -0.9 67
2020-01-20 16:00:00 18.6 28 Norte 42 Norte 0 1013.6 -1.6 67
2020-01-20 15:00:00 18.9 34 Norte 42 Norte 0 1013.3 -3 66
2020-01-20 14:00:00 18.8 36 Norte 45 Nordeste 0 1014.1 -2.8 66
2020-01-20 13:00:00 18.7 32 Norte 42 Norte 0 1015.2 -1.4 69
2020-01-20 12:00:00 19.1 30 Norte 45 Norte 0 1016.3 -0.3 63
2020-01-20 11:00:00 19.1 28 Norte 39 Norte 0 1016.9 0.9 66
2020-01-20 10:00:00 18.5 28 Norte 39 Norte 0 1016.6 1.1 69
2020-01-20 09:00:00 18.3 27 Norte 39 Norte 0 1016.6 0.9 72
2020-01-20 08:00:00 18.6 32 Norte 46 Norte 0 1016 0 72
2020-01-20 07:00:00 18.7 34 Norte 42 Norte 0 1015.5 -0.6 77
2020-01-20 06:00:00 18.9 21 Norte 37 Norte 0 1015.7 -1 78
2020-01-20 05:00:00 18.8 21 Norte 41 Norte 0 1016 -1.4 82
2020-01-20 04:00:00 18.4 30 Norte 50 Norte 0 1016.1 -2.3 82
2020-01-20 03:00:00 19 27 Norte 39 Norte 0 1016.7 -2.3 79
2020-01-20 02:00:00 18.9 24 Norte 32 Norte 0 1017.4 -2.2 78
2020-01-20 01:00:00 19 23 Norte 41 Norte 0 1018.4 -1.3 78
2020-01-20 00:00:00 18.9 29 Norte 41 Norte 0 1019 -0.5 77
2020-01-19 23:00:00 18.9 26 Norte 39 Norte 0 1019.6 0.1 78
2020-01-19 22:00:00 18.9 28 Norte 39 Norte 0 1019.7 0.5 80
2020-01-19 21:00:00 18.8 26 Norte 33 Norte 0 1019.5 0 81
2020-01-19 20:00:00 18.9 21 Norte 35 Nordeste 0 1019.5 -0.1 80
2020-01-19 19:00:00 19.2 31 Norte 37 Norte 0 1019.2 -0.6 81
2020-01-19 18:00:00 19.4 23 Nordeste 35 Nordeste 0 1019.5 -0.7 79
2020-01-19 17:00:00 19.6 30 Nordeste 35 Nordeste 0 1019.6 -1.5 79
2020-01-19 16:00:00 20.2 14 Nordeste 21 Este 0 1019.8 -2.4 75
2020-01-19 15:00:00 20.4 12 Nordeste 26 Nordeste 0 1020.2 -2.9 74
2020-01-19 14:00:00 20.9 17 Nordeste 22 Nordeste 0 1021.1 -2.6 71
2020-01-19 13:00:00 20.5 15 Este 21 Este 0 1022.2 -1.5 68
2020-01-19 12:00:00 20.4 12 Este 22 Nordeste 0 1023.1 -0.5 72
2020-01-19 11:00:00 20.3 13 Este 24 Este 0 1023.7 0.7 73
2020-01-19 10:00:00 19.8 14 Nordeste 26 Nordeste 0 1023.7 1.2 73
2020-01-19 09:00:00 19.6 14 Nordeste 22 Nordeste 0 1023.6 1.6 77
2020-01-19 08:00:00 19.1 21 Nordeste 32 Nordeste 0 1023 0.6 78
2020-01-19 07:00:00 19 13 Nordeste 24 Nordeste 0 1022.5 0.1 79
2020-01-19 06:00:00 19.1 18 Nordeste 28 Nordeste 0 1022 -0.7 76
2020-01-19 05:00:00 19.2 19 Nordeste 26 Nordeste 0 1022.4 -0.7 75
2020-01-19 04:00:00 18.9 9 Nordeste 26 Nordeste 0 1022.4 -1.5 74
2020-01-19 03:00:00 19 21 Nordeste 33 Nordeste 0 1022.7 -1.5 75
2020-01-19 02:00:00 19.2 19 Nordeste 28 Nordeste 0 1023.1 -1.1 75
2020-01-19 01:00:00 19.1 14 Nordeste 22 Nordeste 0 1023.9 -0.1 72
2020-01-19 00:00:00 18.8 11 Norte 18 Nordeste 0 1024.2 0.3 74
2020-01-18 23:00:00 18.3 10 Noroeste 17 Oeste 0 1024.2 0.5 69
2020-01-18 22:00:00 18.2 9 Oeste 17 Sur 0 1024 0.5 56
2020-01-18 21:00:00 18.5 12 Sur 17 Sur 0 1023.9 0.6 56
2020-01-18 20:00:00 19.7 13 Este 21 Este 0 1023.7 0.4 58
2020-01-18 19:00:00 19.5 14 Este 22 Sudeste 0 1023.5 -0.1 65
2020-01-18 18:00:00 19.8 13 Sudeste 28 Sudeste 0 1023.3 -0.7 62
2020-01-18 17:00:00 20.3 15 Sudeste 26 Sudeste 0 1023.3 -1.4 60
2020-01-18 16:00:00 20.1 17 Este 24 Este 0 1023.6 -2 60
2020-01-18 15:00:00 20.6 18 Sudeste 26 Sudeste 0 1024 -2.6 63
2020-01-18 14:00:00 20.5 19 Sudeste 28 Sudeste 0 1024.7 -2.2 62
2020-01-18 13:00:00 20.2 20 Sudeste 32 Este 0 1025.6 -1.1 62
2020-01-18 12:00:00 20.6 21 Sudeste 30 Sudeste 0 1026.6 0.4 58
2020-01-18 11:00:00 21 20 Sudeste 30 Sudeste 0 1026.9 1.3 55
2020-01-18 10:00:00 19.9 13 Sudeste 24 Este 0 1026.7 2 66
2020-01-18 09:00:00 19.2 18 Este 30 Nordeste 0 1026.2 2 76
2020-01-18 08:00:00 18.8 23 Nordeste 32 Nordeste 0 1025.6 1.1 79
2020-01-18 07:00:00 18.6 23 Nordeste 39 Nordeste 0 1024.7 -0.1 78
2020-01-18 06:00:00 18.6 28 Nordeste 37 Nordeste 0 1024.2 -0.7 77
2020-01-18 05:00:00 17.1 6 Norte 15 Norte 0 1024.5 -0.7 76
2020-01-18 04:00:00 16.8 6 Noroeste 17 Oeste 0 1024.8 -0.9 72
2020-01-18 03:00:00 16.1 13 Oeste 18 Oeste 0 1024.9 -1.1 63
2020-01-18 02:00:00 16.9 14 Oeste 18 Oeste 0 1025.2 -0.8 63
2020-01-18 01:00:00 17.7 10 Noroeste 17 Norte 0 1025.7 0.1 65
2020-01-18 00:00:00 17.5 10 Noroeste 18 Oeste 0 1026 0.9 66
2020-01-17 23:00:00 16.9 12 Oeste 17 Oeste 0 1026 1.1 67
2020-01-17 22:00:00 16.4 8 Sudoeste 17 Sur 0 1025.6 1.4 61
2020-01-17 21:00:00 18.1 14 Sur 22 Sur 0 1025.1 1.2 55
2020-01-17 20:00:00 17.9 13 Sur 24 Sur 0 1024.9 1 60
2020-01-17 19:00:00 18.7 16 Sur 24 Sur 0 1024.2 0.4 59
2020-01-17 18:00:00 19.4 17 Sur 28 Sur 0 1023.9 -0.2 57
2020-01-17 17:00:00 20.1 18 Sudeste 26 Sudeste 0 1023.9 -0.9 58
2020-01-17 16:00:00 20.4 20 Sudeste 28 Sudeste 0 1023.8 -2 57
2020-01-17 15:00:00 21.2 21 Sudeste 28 Sudeste 0 1024.1 -2.6 50
2020-01-17 14:00:00 20.5 19 Sudeste 32 Sur 0 1024.8 -1.8 55
2020-01-17 13:00:00 20.4 21 Sudeste 30 Sudeste 0 1025.8 -0.3 57
2020-01-17 12:00:00 20.2 21 Sudeste 32 Sudeste 0 1026.7 1.3 60
2020-01-17 11:00:00 20.7 22 Sudeste 28 Sudeste 0 1026.6 1.9 47
2020-01-17 10:00:00 19.5 10 Este 17 Este 0 1026.1 1.7 58
2020-01-17 09:00:00 18.1 8 Sudoeste 15 Sur 0 1025.4 1.3 52
2020-01-17 08:00:00 16.5 10 Sur 17 Sur 0 1024.7 0.8 56
2020-01-17 07:00:00 16.7 9 Sur 13 Sur 0 1024.4 0.6 57
2020-01-17 06:00:00 15.8 8 Sur 13 Sudoeste 0 1024.1 0.3 62
2020-01-17 05:00:00 15.6 8 Sudoeste 13 Sur 0 1023.9 -0.1 60
2020-01-17 04:00:00 15.9 10 Sudoeste 17 Sur 0 1023.8 -0.6 59
2020-01-17 03:00:00 16.4 14 Sudoeste 18 Sur 0 1023.8 -1 63
2020-01-17 02:00:00 16.6 12 Sur 15 Sur 0 1024 -0.7 65
2020-01-17 01:00:00 16.1 7 Sur 11 Sudoeste 0 1024.4 0 66
2020-01-17 00:00:00 16.5 8 Sur 13 Sudoeste 0 1024.8 0.9 63
2020-01-16 23:00:00 17.1 10 Sur 13 Sur 0 1024.7 1.2 61
2020-01-16 22:00:00 16.7 7 Sur 15 Sur 0 1024.4 1.5 63
2020-01-16 21:00:00 17.7 9 Sur 13 Sur 0 1023.9 1.3 62
2020-01-16 20:00:00 17.9 9 Sur 13 Sur 0 1023.5 1.1 61
2020-01-16 19:00:00 18.5 4 Sur 13 Este 0 1022.9 0.8 61
2020-01-16 18:00:00 19.4 10 Sudeste 17 Este 0 1022.6 0.3 59
2020-01-16 17:00:00 19.9 12 Sudeste 17 Sudeste 0 1022.4 0 60
2020-01-16 16:00:00 20 10 Sudeste 17 Sudeste 0 1022.1 -0.9 60
2020-01-16 15:00:00 20.3 10 Sudeste 21 Sudeste 0 1022.3 -1.5 57
2020-01-16 14:00:00 20.8 14 Sudeste 21 Sudeste 0 1022.4 -1.3 55
2020-01-16 13:00:00 20.7 15 Sudeste 22 Sudeste 0 1023 -0.1 56
2020-01-16 12:00:00 20.8 11 Sudeste 21 Sur 0 1023.8 1.3 55
2020-01-16 11:00:00 20.7 14 Sudeste 21 Sudeste 0 1023.7 2.1 52
2020-01-16 10:00:00 20 13 Sur 21 Sur 0 1023.1 2.5 52
2020-01-16 09:00:00 18.5 11 Sur 22 Sudoeste 0 1022.5 2.3 57
2020-01-16 08:00:00 16.6 17 Sudoeste 22 Sudoeste 0 1021.6 1.3 61
2020-01-16 07:00:00 16.5 16 Sudoeste 21 Sudoeste 0 1020.6 0.2 56
2020-01-16 06:00:00 16 14 Sudoeste 18 Sudoeste 0 1020.2 0 56
2020-01-16 05:00:00 15.5 14 Sudoeste 21 Sudoeste 0 1020.3 0 44
2020-01-16 04:00:00 16.3 18 Sudoeste 22 Sudoeste 0 1020.4 -0.2 40
2020-01-16 03:00:00 16.7 18 Sudoeste 24 Sudoeste 0 1020.2 -0.5 43
2020-01-16 02:00:00 16.7 14 Sudoeste 24 Sudoeste 0 1020.3 -0.1 45
2020-01-16 01:00:00 16.9 18 Sudoeste 22 Sudoeste 0 1020.6 0.7 49
2020-01-16 00:00:00 17.1 17 Sudoeste 22 Sudoeste 0 1020.7 1 54
2020-01-15 23:00:00 18.1 17 Sur 28 Sur 0 1020.4 1.1 57
2020-01-15 22:00:00 18.2 17 Sur 24 Sur 0 1019.9 1.3 55
2020-01-15 21:00:00 18 12 Sur 21 Sudeste 0 1019.7 1.6 56
2020-01-15 20:00:00 18.8 16 Sur 26 Sudeste 0 1019.3 1.2 56
2020-01-15 19:00:00 19.2 15 Sur 24 Sur 0 1018.6 0.7 51
2020-01-15 18:00:00 19.9 19 Sudeste 26 Sudeste 0 1018.1 -0.1 52
2020-01-15 17:00:00 20.4 16 Sudeste 21 Sudeste 0 1018.1 -0.5 53
2020-01-15 16:00:00 20.9 15 Sudeste 24 Sudeste 0 1017.9 -0.9 51
2020-01-15 15:00:00 21 15 Sudeste 26 Sudeste 0 1018.2 -1.3 53
2020-01-15 14:00:00 21.2 16 Sudeste 30 Sur 0 1018.6 -1.1 52
2020-01-15 13:00:00 21.4 22 Sudeste 30 Sudeste 0 1018.8 -0.3 50
2020-01-15 12:00:00 21.2 21 Sur 32 Sur 0 1019.5 0.6 51
2020-01-15 11:00:00 20.4 19 Sur 32 Sur 0 1019.7 1.2 50
2020-01-15 10:00:00 19.2 18 Sur 28 Sur 0 1019.1 1.1 56
2020-01-15 09:00:00 17.8 14 Sur 24 Sudoeste 0 1018.9 1.6 59
2020-01-15 08:00:00 16.5 18 Sudoeste 24 Sudoeste 0 1018.5 1.1 62
2020-01-15 07:00:00 15.8 15 Sudoeste 21 Sudoeste 0 1018 0.5 66
2020-01-15 06:00:00 15.7 14 Sudoeste 21 Sudoeste 0 1017.3 -0.1 67
2020-01-15 05:00:00 16.1 13 Sudoeste 21 Sudoeste 0 1017.4 -0.2 66
2020-01-15 04:00:00 16.8 12 Sur 24 Sur 0 1017.5 -0.5 66
2020-01-15 03:00:00 16.9 13 Sur 24 Sur 0 1017.4 -0.7 65
2020-01-15 02:00:00 17.6 16 Sur 24 Sur 0 1017.6 -0.3 62
2020-01-15 01:00:00 17.8 15 Sur 26 Sur 0 1018 0.4 60
2020-01-15 00:00:00 17.6 14 Sur 26 Sur 0 1018.1 1 59
2020-01-14 23:00:00 18.1 17 Sur 24 Sur 0 1017.9 1.4 61
2020-01-14 22:00:00 17.9 13 Sur 22 Sur 0 1017.6 1.6 60
2020-01-14 21:00:00 18.4 16 Sudeste 24 Sur 0 1017.1 1.4 60
2020-01-14 20:00:00 18.9 18 Sur 32 Sur 0 1016.5 0.5 52
2020-01-14 19:00:00 19.3 22 Sur 30 Sur 0 1016 0.4 50
2020-01-14 18:00:00 20 22 Sur 33 Sur 0 1015.7 0.2 48
2020-01-14 17:00:00 21.1 26 Sur 37 Sur 0 1016 -0.5 48
2020-01-14 16:00:00 21.5 29 Sur 39 Sur 0 1015.6 -1.4 48
2020-01-14 15:00:00 21.8 30 Sur 39 Sur 0 1015.5 -2.3 49
2020-01-14 14:00:00 21.8 29 Sur 41 Sur 0 1016.5 -1.5 48
2020-01-14 13:00:00 22.4 28 Sur 45 Sur 0 1017 -0.4 45
2020-01-14 12:00:00 21.8 29 Sur 41 Sur 0 1017.8 0.9 47
2020-01-14 11:00:00 21.5 27 Sur 41 Sur 0 1018 1.5 51
2020-01-14 10:00:00 20.6 26 Sur 35 Sur 0 1017.4 1.4 55
2020-01-14 09:00:00 19.4 21 Sur 30 Sur 0 1016.9 1.4 60
2020-01-14 08:00:00 18.5 19 Sur 28 Sur 0 1016.5 1.3 64
2020-01-14 07:00:00 18.4 19 Sur 30 Sur 0 1016 0.8 68
2020-01-14 06:00:00 18.2 19 Sur 28 Sur 0 1015.5 -0.5 69
2020-01-14 05:00:00 18 15 Sur 24 Sur 0 1015.2 -0.9 68
2020-01-14 04:00:00 17.8 17 Sur 22 Sur 0 1015.2 -1.6 69
2020-01-14 03:00:00 17.7 13 Sur 24 Sur 0 1016 -1.4 69
2020-01-14 02:00:00 17.5 13 Sur 22 Sur 0 1016.1 -1.6 76
2020-01-14 01:00:00 17.7 9 Sur 24 Sudeste 0 1016.8 -1.3 75
2020-01-14 00:00:00 18.8 19 Sudeste 28 Sur 0 1017.4 -0.5 75
2020-01-13 23:00:00 18.8 15 Sur 22 Sudeste 0 1017.7 0.2 74
2020-01-13 22:00:00 18.9 17 Sudeste 24 Sudeste 0 1018.1 0.9 74
2020-01-13 21:00:00 19.3 17 Sudeste 26 Sudeste 0 1017.9 0.9 74
2020-01-13 20:00:00 19.2 14 Sur 22 Sudeste 0 1017.5 0.4 71
2020-01-13 19:00:00 19.3 11 Sur 13 Sur 0 1017.2 0.1 67
2020-01-13 18:00:00 19.4 9 Sudeste 17 Este 0 1017 -0.3 66
2020-01-13 17:00:00 19.7 12 Sudeste 18 Este 0 1017.1 -1 61
2020-01-13 16:00:00 20.1 9 Este 18 Este 0 1017.1 -1.9 54
2020-01-13 15:00:00 20.3 12 Nordeste 21 Nordeste 0 1017.3 -2.8 62
2020-01-13 14:00:00 20.3 14 Nordeste 18 Nordeste 0 1018.1 -2.4 63
2020-01-13 13:00:00 20.1 17 Nordeste 22 Este 0 1019 -1.3 67
2020-01-13 12:00:00 19.8 17 Nordeste 26 Nordeste 0 1020.1 0.1 67
2020-01-13 11:00:00 19.6 19 Nordeste 28 Nordeste 0 1020.5 0.8 67
2020-01-13 10:00:00 19.4 23 Norte 32 Norte 0 1020.3 0.9 68
2020-01-13 09:00:00 18.8 22 Norte 30 Norte 0 1020 0.9 69
2020-01-13 08:00:00 18.3 23 Norte 30 Norte 0 1019.7 0.9 69
2020-01-13 07:00:00 18.2 21 Norte 28 Norte 0 1019.4 0.5 70
2020-01-13 06:00:00 18.3 15 Norte 22 Norte 0 1019.1 -0.1 69
2020-01-13 05:00:00 18.4 19 Nordeste 28 Nordeste 0 1018.8 -1 69
2020-01-13 04:00:00 18.6 23 Nordeste 30 Nordeste 0 1018.9 -1.4 68
2020-01-13 03:00:00 18.6 18 Nordeste 26 Nordeste 0 1019.2 -1.5 67
2020-01-13 02:00:00 18.6 18 Nordeste 26 Nordeste 0 1019.8 -0.9 68
2020-01-13 01:00:00 17.6 6 Noroeste 17 Nordeste 0 1020.3 -0.2 73
2020-01-13 00:00:00 18.8 13 Este 37 Nordeste 0 1020.7 0.5 72
2020-01-12 23:00:00 19 26 Nordeste 32 Este 0 1020.7 0.3 72
2020-01-12 22:00:00 19 24 Nordeste 35 Norte 0 1020.5 0.2 74
2020-01-12 21:00:00 18.9 30 Norte 41 Norte 0 1020.2 -0.2 70
2020-01-12 20:00:00 19 32 Nordeste 41 Nordeste 0 1020.4 0.2 67
2020-01-12 19:00:00 18.9 24 Norte 30 Nordeste 0 1020.3 0.3 70
2020-01-12 18:00:00 19.2 18 Nordeste 24 Nordeste 0 1020.4 0.1 66
2020-01-12 17:00:00 19.1 6 Este 26 Nordeste 0 1020.2 -0.7 66
2020-01-12 16:00:00 19.4 20 Nordeste 28 Norte 0 1020 -1.6 66
2020-01-12 15:00:00 19.9 10 Nordeste 24 Este 0 1020.3 -1.8 63
2020-01-12 14:00:00 19.8 13 Este 21 Este 0 1020.9 -1.5 64
2020-01-12 13:00:00 20.6 13 Norte 32 Nordeste 0 1021.6 -1 61
2020-01-12 12:00:00 19.3 26 Nordeste 32 Nordeste 0 1022.1 0.4 69
2020-01-12 11:00:00 19.1 24 Nordeste 37 Nordeste 0 1022.4 1.1 68
2020-01-12 10:00:00 19.1 14 Este 24 Este 0 1022.6 1.6 63
2020-01-12 09:00:00 18.7 14 Sudeste 39 Nordeste 0 1021.7 1 63
2020-01-12 08:00:00 18.6 30 Nordeste 45 Nordeste 0 1021.3 0.8 69
2020-01-12 07:00:00 18.5 32 Nordeste 39 Nordeste 0 1021 0 75
2020-01-12 06:00:00 18.2 23 Norte 33 Norte 0 1020.7 -1 77
2020-01-12 05:00:00 18.4 28 Nordeste 42 Nordeste 0 1020.5 -2 74
2020-01-12 04:00:00 17.6 18 Norte 41 Norte 0 1021 -1.7 74
2020-01-12 03:00:00 18 23 Norte 42 Nordeste 0 1021.7 -1.6 78
2020-01-12 02:00:00 16.6 24 Norte 35 Nordeste 0 1022.5 -0.9 84
2020-01-12 01:00:00 16.7 20 Norte 48 Nordeste 0.3 1022.7 -0.2 87
2020-01-12 00:00:00 17.3 25 Norte 48 Nordeste 0 1023.3 0.8 81
2020-01-11 23:00:00 17.5 19 Norte 42 Norte 0 1023.4 0.8 77
2020-01-11 22:00:00 18.5 35 Norte 45 Norte 0 1022.9 0.9 73
2020-01-11 21:00:00 18.6 21 Norte 41 Norte 0 1022.5 0.9 72
2020-01-11 20:00:00 18.8 23 Norte 42 Nordeste 0 1022.6 1 67
2020-01-11 19:00:00 19 31 Norte 41 Nordeste 0 1022 0.8 65
2020-01-11 18:00:00 19.1 22 Norte 42 Nordeste 0 1021.6 -0.2 64
2020-01-11 17:00:00 19.2 27 Norte 41 Norte 0 1021.6 -0.7 69
2020-01-11 16:00:00 19.3 34 Norte 41 Norte 0 1021.2 -2 69
2020-01-11 15:00:00 20.1 25 Norte 37 Nordeste 0 1021.8 -2.5 63
2020-01-11 14:00:00 19.5 32 Nordeste 41 Nordeste 0 1022.3 -2.6 64
2020-01-11 13:00:00 20.1 24 Norte 35 Norte 0 1023.2 -1.3 65
2020-01-11 12:00:00 20.2 23 Norte 37 Norte 0 1024.3 0.6 63
2020-01-11 11:00:00 19.6 29 Norte 41 Norte 0 1024.9 1.8 63
2020-01-11 10:00:00 19.4 30 Norte 46 Norte 0 1024.5 1.9 65
2020-01-11 09:00:00 19 33 Norte 48 Norte 0 1023.7 1.1 68
2020-01-11 08:00:00 18.8 27 Norte 35 Norte 0 1023.1 0.3 69
2020-01-11 07:00:00 18.9 24 Norte 41 Nordeste 0 1022.6 -0.5 69
2020-01-11 06:00:00 19.2 28 Nordeste 41 Norte 0 1022.6 -0.6 71
2020-01-11 05:00:00 19 31 Norte 45 Nordeste 0 1022.8 -0.5 78
2020-01-11 04:00:00 19 35 Norte 48 Norte 0 1023.1 -0.7 82
2020-01-11 03:00:00 18.8 29 Norte 37 Norte 0 1023.2 -1.2 82
2020-01-11 02:00:00 18.9 24 Norte 37 Norte 0 1023.3 -1.3 82
2020-01-11 01:00:00 19.1 25 Norte 37 Norte 0 1023.8 -0.8 81
2020-01-11 00:00:00 19.1 29 Norte 42 Norte 0 1024.4 -0.2 79
2020-01-10 23:00:00 19.1 24 Norte 37 Norte 0 1024.6 0.3 78
2020-01-10 22:00:00 19.2 25 Norte 39 Norte 0 1024.6 0.4 79
2020-01-10 21:00:00 19.3 26 Norte 41 Norte 0 1024.6 0.8 79
2020-01-10 20:00:00 19.3 29 Norte 41 Nordeste 0 1024.3 0.7 78
2020-01-10 19:00:00 19.5 31 Nordeste 39 Norte 0 1024.2 0.6 78
2020-01-10 18:00:00 19.4 28 Norte 37 Norte 0 1023.8 -0.1 78
2020-01-10 17:00:00 19.7 31 Norte 39 Norte 0 1023.6 -0.8 76
2020-01-10 16:00:00 19.9 29 Norte 39 Norte 0 1023.6 -1.4 75
2020-01-10 15:00:00 19.6 26 Norte 45 Nordeste 0 1023.9 -2 76
2020-01-10 14:00:00 19.8 31 Norte 41 Norte 0 1024.4 -2 76
2020-01-10 13:00:00 19.6 29 Norte 48 Nordeste 0 1025 -0.8 77
2020-01-10 12:00:00 19.9 22 Norte 41 Nordeste 0 1025.9 0.8 77
2020-01-10 11:00:00 20.1 29 Nordeste 41 Nordeste 0 1026.4 1.5 76
2020-01-10 10:00:00 20.2 32 Norte 46 Nordeste 0 1025.8 1.4 74
2020-01-10 09:00:00 20 29 Norte 37 Norte 0 1025.1 1 76
2020-01-10 08:00:00 19.3 29 Nordeste 45 Nordeste 0 1024.9 0.3 73
2020-01-10 07:00:00 19.3 32 Nordeste 45 Nordeste 0 1024.4 -0.6 73
2020-01-10 06:00:00 19 31 Norte 41 Norte 0 1024.1 -1.1 76
2020-01-10 05:00:00 19.2 24 Norte 45 Nordeste 0 1024.6 -0.9 77
2020-01-10 04:00:00 19.2 30 Nordeste 37 Norte 0 1025 -0.7 71
2020-01-10 03:00:00 19.4 28 Norte 45 Nordeste 0 1025.2 -0.9 68
2020-01-10 02:00:00 19.2 35 Norte 45 Nordeste 0 1025.5 -0.9 67
2020-01-10 01:00:00 19.2 27 Norte 46 Nordeste 0 1025.7 -0.6 71
2020-01-10 00:00:00 19.2 32 Norte 48 Norte 0 1026.1 0 67
2020-01-09 23:00:00 19.1 35 Norte 48 Norte 0 1026.4 0.5 67
2020-01-09 22:00:00 19.1 37 Norte 48 Norte 0 1026.3 1.1 68
2020-01-09 21:00:00 18.9 36 Norte 48 Norte 0 1026.1 1.2 71
2020-01-09 20:00:00 19.1 35 Nordeste 50 Norte 0 1025.9 1 72
2020-01-09 19:00:00 19.1 36 Norte 46 Norte 0 1025.2 0.6 70
2020-01-09 18:00:00 19 31 Norte 46 Norte 0 1024.9 0.3 71
2020-01-09 17:00:00 19.2 33 Norte 45 Nordeste 0 1024.9 -0.2 69
2020-01-09 16:00:00 19.5 33 Nordeste 42 Norte 0 1024.6 -1.3 68
2020-01-09 15:00:00 19.8 32 Norte 41 Norte 0 1024.6 -2 68
2020-01-09 14:00:00 20 28 Nordeste 45 Nordeste 0 1025.1 -1.7 59
2020-01-09 13:00:00 20.3 31 Norte 42 Norte 0 1025.9 -0.2 59
2020-01-09 12:00:00 20 32 Nordeste 45 Nordeste 0 1026.6 1.3 62
2020-01-09 11:00:00 19.4 31 Nordeste 41 Nordeste 0 1026.8 2.2 64
2020-01-09 10:00:00 19.1 19 Nordeste 42 Nordeste 0 1026.1 2 69
2020-01-09 09:00:00 19 32 Nordeste 41 Nordeste 0 1025.3 1.1 66
2020-01-09 08:00:00 18.8 33 Nordeste 45 Nordeste 0 1024.6 0.4 68
2020-01-09 07:00:00 18.9 30 Nordeste 41 Nordeste 0 1024.1 -0.1 69
2020-01-09 06:00:00 18.8 25 Nordeste 41 Este 0 1024.2 -0.4 69
2020-01-09 05:00:00 18.9 32 Nordeste 42 Nordeste 0 1024.2 -0.6 68
2020-01-09 04:00:00 18.8 28 Norte 37 Norte 0 1024.2 -0.6 71
2020-01-09 03:00:00 18.8 26 Nordeste 37 Nordeste 0 1024.6 -0.6 70
2020-01-09 02:00:00 18.9 27 Nordeste 39 Nordeste 0 1024.8 -0.7 69
2020-01-09 01:00:00 18.9 32 Nordeste 39 Nordeste 0 1024.8 -0.6 68
2020-01-09 00:00:00 18.9 28 Norte 41 Nordeste 0 1025.2 0 67
2020-01-08 23:00:00 19 30 Norte 39 Nordeste 0 1025.5 0.8 66
2020-01-08 22:00:00 18.9 27 Norte 42 Nordeste 0 1025.4 1.2 65
2020-01-08 21:00:00 18.9 33 Norte 46 Nordeste 0 1025.2 1.1 66
2020-01-08 20:00:00 19.1 34 Norte 46 Nordeste 0 1024.7 0.7 68
2020-01-08 19:00:00 19.2 38 Nordeste 46 Nordeste 0 1024.2 0.6 67
2020-01-08 18:00:00 19.3 33 Norte 42 Nordeste 0 1024.1 0.4 67
2020-01-08 17:00:00 19.5 30 Nordeste 41 Nordeste 0 1024 0.1 69
2020-01-08 16:00:00 19.6 30 Nordeste 35 Nordeste 0 1023.6 -0.9 68
2020-01-08 15:00:00 19.4 9 Nordeste 22 Nordeste 0.1 1023.7 -1.3 67
2020-01-08 14:00:00 20 10 Este 33 Nordeste 0 1023.9 -1.4 63
2020-01-08 13:00:00 20.1 19 Este 46 Nordeste 0 1024.5 -0.4 65
2020-01-08 12:00:00 20 37 Nordeste 50 Nordeste 0 1025 0.8 69
2020-01-08 11:00:00 19.8 31 Nordeste 41 Nordeste 0 1025.3 1.8 68
2020-01-08 10:00:00 19.8 30 Nordeste 39 Nordeste 0 1024.9 1.7 66
2020-01-08 09:00:00 19.1 33 Nordeste 46 Nordeste 0 1024.2 1.4 66
2020-01-08 08:00:00 18.8 33 Nordeste 42 Nordeste 0 1023.5 0.7 69
2020-01-08 07:00:00 18.8 29 Nordeste 42 Nordeste 0 1023.2 0 68
2020-01-08 06:00:00 18.8 32 Nordeste 45 Nordeste 0 1022.8 -0.5 69
2020-01-08 05:00:00 18.8 31 Nordeste 41 Nordeste 0 1022.8 -0.5 68
2020-01-08 04:00:00 18.9 27 Nordeste 35 Nordeste 0 1023.2 -0.3 68
2020-01-08 03:00:00 19.1 25 Nordeste 37 Nordeste 0 1023.3 -0.7 65
2020-01-08 02:00:00 19.1 26 Nordeste 42 Nordeste 0 1023.3 -1.2 64
2020-01-08 01:00:00 19 28 Nordeste 41 Nordeste 0 1023.5 -0.7 67
2020-01-08 00:00:00 19.1 26 Nordeste 35 Nordeste 0 1024 0.2 68
2020-01-07 23:00:00 19.3 22 Nordeste 30 Nordeste 0 1024.5 1.1 65
2020-01-07 22:00:00 19.3 26 Nordeste 35 Nordeste 0 1024.2 1.3 68
2020-01-07 21:00:00 19.1 9 Este 15 Este 0 1023.8 1.4 66
2020-01-07 20:00:00 19.1 10 Este -- -- -- 1023.4 1.1 64
2020-01-07 19:00:00 19.1 14 Este 30 Norte 0 1022.9 1 68
2020-01-07 18:00:00 19.4 25 Norte 32 Norte 0 1022.4 0.4 65
2020-01-07 17:00:00 19.9 17 Norte 24 Norte 0 1022.3 -0.3 62
2020-01-07 16:00:00 19.8 13 Nordeste 22 Sudeste 0 1021.9 -1 65
2020-01-07 15:00:00 19.5 15 Sudeste 30 Este 0 1022 -1.8 56
2020-01-07 14:00:00 19.4 22 Este 32 Este 0 1022.6 -1.6 65
2020-01-07 13:00:00 19.7 22 Este 45 Nordeste 0 1022.9 -0.8 64
2020-01-07 12:00:00 19.9 26 Nordeste 42 Nordeste 0 1023.8 1 65
2020-01-07 11:00:00 20 19 Este 37 Este 0 1024.2 2.1 62
2020-01-07 10:00:00 20.2 30 Nordeste 39 Nordeste 0 1023.7 2.1 58
2020-01-07 09:00:00 19.3 30 Norte 39 Norte 0 1022.8 2 66
2020-01-07 08:00:00 19 29 Nordeste 48 Nordeste 0 1022.1 1.2 62
2020-01-07 07:00:00 18.9 37 Nordeste 48 Nordeste 0 1021.6 0.4 70
2020-01-07 06:00:00 18.9 32 Norte 46 Nordeste 0 1020.8 -0.5 68
2020-01-07 05:00:00 19 32 Norte 45 Nordeste 0 1020.9 -0.8 71
2020-01-07 04:00:00 19 33 Nordeste 52 Nordeste 0 1021.2 -0.8 67
2020-01-07 03:00:00 19 40 Norte 50 Norte 0 1021.3 -1 68
2020-01-07 02:00:00 18.9 35 Norte 48 Norte 0 1021.7 -1.3 65
2020-01-07 01:00:00 18.9 41 Nordeste 52 Nordeste 0 1022 -1 72
2020-01-07 00:00:00 19.2 36 Norte 46 Norte 0 1022.3 -0.3 71
2020-01-06 23:00:00 19.1 27 Norte 42 Norte 0 1023 0.7 69
2020-01-06 22:00:00 19.1 36 Norte 45 Norte 0 1023 0.8 69
2020-01-06 21:00:00 19.3 33 Norte 45 Norte 0 1022.6 0.7 72
2020-01-06 20:00:00 19.3 36 Norte 52 Nordeste 0 1022.3 0.5 71
2020-01-06 19:00:00 19.1 30 Norte 42 Norte 0 1022.2 0.3 74
2020-01-06 18:00:00 19.3 33 Norte 41 Norte 0 1021.9 0.2 69
2020-01-06 17:00:00 19.5 31 Norte 39 Norte 0 1021.8 -0.6 67
2020-01-06 16:00:00 19.8 29 Norte 39 Nordeste 0 1021.9 -1.4 63
2020-01-06 15:00:00 20 31 Nordeste 39 Nordeste 0 1021.7 -2.7 59
2020-01-06 14:00:00 20 28 Norte 37 Norte 0 1022.4 -2.4 65
2020-01-06 13:00:00 19.8 23 Norte 32 Norte 0 1023.3 -1.3 69
2020-01-06 12:00:00 19.4 24 Nordeste 41 Nordeste 0 1024.4 0.8 68
2020-01-06 11:00:00 19 34 Nordeste 42 Nordeste 0 1024.8 1.6 74
2020-01-06 10:00:00 18.9 28 Norte 39 Nordeste 0 1024.6 1 76
2020-01-06 09:00:00 18.9 32 Norte 42 Nordeste 0 1023.6 0.7 76